Argyle, Minnesota
Current Conditions -  °F | °C
As of 2:35 AM on Tuesday 27 Jan 2015 (Local Time) from KHCO Reporting Station
Moderate Fog Moderate Fog  
Wind Chill: 16°   Ceiling: 200
Heat Index: 25°   Visibility: 0.5mi
Dew Point: 23°   Wind: 8mph
Humidity: 93%   Direction: 180°S
Pressure: 30.04"   Gusts: NA
Location:  48.33°N, 96.82°W
Report Text: KHCO 270835Z AUTO 18007KT 1/2SM FZFG OVC002 M04/M05 A3004 RMK AO2
Loading
Personal Weather Stations






























Interactive Weather Map New forecast layout! Learn more

10-Day Weather Forecast

Advertisements
Track Severe Weather on mobile